Time;durP1;ratioP1;P1;durP2;ratioP2;P2;SDS_P1;SDS_P2;PMS_P1;PMS_P2;Temp;Humidity;BMP_temperature;BMP_pressure;BME280_temperature;BME280_humidity;BME280_pressure;Samples;Min_cycle;Max_cycle;Signal;HPM_P1;HPM_P2
2022/04/02 00:01:55;;;;;;;4.35;2.25;;;0.80;99.90;;;;;;5056509;28;20068;-71
2022/04/02 00:04:22;;;;;;;4.57;2.17;;;0.80;99.90;;;;;;5055649;28;20052;-70
2022/04/02 00:06:49;;;;;;;4.63;2.72;;;0.80;99.90;;;;;;5094383;28;20097;-71
2022/04/02 00:09:16;;;;;;;7.05;3.08;;;0.80;99.90;;;;;;5093503;28;20078;-71
2022/04/02 00:11:43;;;;;;;6.90;2.60;;;0.80;99.90;;;;;;5076822;28;20128;-70
2022/04/02 00:14:11;;;;;;;5.82;2.35;;;0.80;99.90;;;;;;5076202;28;20119;-70
2022/04/02 00:16:38;;;;;;;2.70;2.17;;;0.80;99.90;;;;;;5075052;28;20543;-70
2022/04/02 00:19:05;;;;;;;12.30;2.78;;;0.80;99.90;;;;;;5076174;28;20446;-70
2022/04/02 00:21:32;;;;;;;5.38;2.58;;;0.80;99.90;;;;;;5075926;28;20056;-70
2022/04/02 00:23:59;;;;;;;5.50;2.55;;;0.80;99.90;;;;;;5074831;28;20561;-70
2022/04/02 00:26:25;;;;;;;4.60;2.63;;;0.80;99.90;;;;;;5075730;28;20071;-71
2022/04/02 00:28:52;;;;;;;5.13;2.38;;;0.80;99.90;;;;;;5075637;28;20161;-70
2022/04/02 00:31:22;;;;;;;5.57;2.13;;;0.80;99.90;;;;;;5075036;28;20048;-71
2022/04/02 00:33:50;;;;;;;4.32;2.47;;;0.80;99.90;;;;;;5093529;28;20051;-70
2022/04/02 00:36:20;;;;;;;6.07;2.40;;;0.70;99.90;;;;;;5075543;28;20052;-70
2022/04/02 00:38:47;;;;;;;5.13;3.00;;;0.70;99.90;;;;;;5093366;28;20056;-70
2022/04/02 00:41:15;;;;;;;6.20;3.17;;;0.70;99.90;;;;;;5075722;28;20077;-70
2022/04/02 00:43:55;;;;;;;5.80;2.70;;;0.80;99.90;;;;;;5093526;28;20126;-71
2022/04/02 00:46:24;;;;;;;5.15;2.88;;;0.70;99.90;;;;;;5092989;28;20415;-71
2022/04/02 00:48:51;;;;;;;4.35;2.50;;;0.70;99.90;;;;;;5093356;28;20451;-72
2022/04/02 00:51:18;;;;;;;5.95;2.63;;;0.60;99.90;;;;;;5075059;28;20490;-71
2022/04/02 00:53:48;;;;;;;5.55;3.25;;;0.60;99.90;;;;;;5074754;28;20044;-71
2022/04/02 00:56:16;;;;;;;6.95;3.25;;;0.70;99.90;;;;;;5093106;28;20051;-71
2022/04/02 00:58:43;;;;;;;5.10;2.88;;;0.70;99.90;;;;;;5074822;28;20059;-71
2022/04/02 01:01:10;;;;;;;4.45;3.00;;;0.70;99.90;;;;;;5071174;28;20048;-71
2022/04/02 01:03:38;;;;;;;11.52;2.60;;;0.70;99.90;;;;;;5054997;28;20098;-71
2022/04/02 01:06:06;;;;;;;5.55;2.25;;;0.60;99.90;;;;;;5054454;28;20110;-71
2022/04/02 01:08:32;;;;;;;4.47;2.75;;;0.50;99.90;;;;;;5054867;28;20098;-71
2022/04/02 01:11:00;;;;;;;4.22;2.88;;;0.50;99.90;;;;;;5072647;28;20056;-71
2022/04/02 01:13:27;;;;;;;7.53;2.95;;;0.40;99.90;;;;;;5054720;28;20084;-72
2022/04/02 01:15:56;;;;;;;10.65;2.88;;;0.40;99.90;;;;;;5060331;28;20491;-72
2022/04/02 01:18:23;;;;;;;5.88;2.88;;;0.30;99.90;;;;;;5092767;28;20052;-71
2022/04/02 01:20:52;;;;;;;6.70;3.28;;;0.30;99.90;;;;;;5074406;28;20044;-71
2022/04/02 01:23:28;;;;;;;10.23;3.50;;;0.20;99.90;;;;;;5074836;28;20051;-71
2022/04/02 01:25:54;;;;;;;6.38;3.13;;;0.20;99.90;;;;;;5092586;28;20056;-71
2022/04/02 01:28:21;;;;;;;7.28;3.53;;;0.20;99.90;;;;;;5070831;28;20093;-71
2022/04/02 01:30:48;;;;;;;6.82;3.40;;;0.20;99.90;;;;;;5071223;28;20462;-71
2022/04/02 01:33:15;;;;;;;7.07;3.30;;;0.20;99.90;;;;;;5072436;28;20049;-71
2022/04/02 01:35:42;;;;;;;6.68;3.35;;;0.20;99.90;;;;;;5071862;28;20041;-71
2022/04/02 01:38:09;;;;;;;5.10;3.00;;;0.20;99.90;;;;;;5071836;28;20445;-71
2022/04/02 01:40:37;;;;;;;12.63;2.67;;;0.20;99.90;;;;;;5071231;28;20064;-70
2022/04/02 01:43:04;;;;;;;6.05;3.28;;;0.20;99.90;;;;;;5071562;28;20439;-71
2022/04/02 01:45:31;;;;;;;7.65;2.35;;;0.20;99.90;;;;;;5071136;28;20052;-71
2022/04/02 01:47:57;;;;;;;4.63;2.65;;;0.20;99.90;;;;;;5075400;28;20636;-71
2022/04/02 01:50:24;;;;;;;7.43;2.35;;;0.20;99.90;;;;;;5079168;28;20109;-71
2022/04/02 01:52:51;;;;;;;5.13;2.78;;;0.20;99.90;;;;;;5077904;28;20048;-71
2022/04/02 01:55:18;;;;;;;13.20;3.53;;;0.20;99.90;;;;;;5078475;28;20054;-71
2022/04/02 01:57:47;;;;;;;6.72;2.35;;;0.20;99.90;;;;;;5077646;28;20041;-72
2022/04/02 02:00:15;;;;;;;9.63;2.67;;;0.20;99.90;;;;;;5077753;28;20058;-70
2022/04/02 02:02:42;;;;;;;7.38;2.45;;;0.30;99.90;;;;;;5076784;28;20519;-70
2022/04/02 02:05:10;;;;;;;7.85;3.22;;;0.30;99.90;;;;;;5074261;28;20103;-72
2022/04/02 02:07:36;;;;;;;9.65;3.22;;;0.40;99.90;;;;;;5057500;28;20049;-71
2022/04/02 02:10:04;;;;;;;5.47;2.63;;;0.40;99.90;;;;;;5058125;28;20048;-71
2022/04/02 02:12:31;;;;;;;7.88;3.13;;;0.30;99.90;;;;;;5057553;28;20048;-71
2022/04/02 02:14:59;;;;;;;5.75;3.45;;;0.30;99.90;;;;;;5058687;28;20063;-71
2022/04/02 02:17:26;;;;;;;5.55;2.65;;;0.30;99.90;;;;;;5057060;28;20056;-71
2022/04/02 02:19:53;;;;;;;6.82;2.90;;;0.20;99.90;;;;;;5066529;28;20056;-71
2022/04/02 02:22:20;;;;;;;5.38;2.53;;;0.20;99.90;;;;;;5077697;28;20194;-71
2022/04/02 02:24:47;;;;;;;5.95;2.65;;;0.10;99.90;;;;;;5076537;28;20489;-71
2022/04/02 02:27:13;;;;;;;5.82;3.10;;;0.00;99.90;;;;;;5082297;28;20052;-70
2022/04/02 02:29:40;;;;;;;5.15;2.30;;;-0.10;99.90;;;;;;5098704;28;20525;-71
2022/04/02 02:32:09;;;;;;;6.05;2.67;;;-0.10;99.90;;;;;;5080380;28;20438;-70
2022/04/02 02:37:20;;;;;;;5.85;2.53;;;-0.30;99.90;;;;;;5080227;28;20543;-72
2022/04/02 02:39:48;;;;;;;6.30;2.20;;;-0.30;99.90;;;;;;5098652;28;20109;-71
2022/04/02 02:42:15;;;;;;;3.95;2.33;;;-0.40;99.90;;;;;;5080506;28;20442;-71
2022/04/02 02:44:42;;;;;;;5.15;2.55;;;-0.40;99.90;;;;;;5080220;28;20047;-71
2022/04/02 02:47:11;;;;;;;5.85;3.05;;;-0.40;99.90;;;;;;5080527;28;20445;-71
2022/04/02 02:49:38;;;;;;;4.57;2.35;;;-0.50;99.90;;;;;;5080917;28;20052;-72
2022/04/02 02:52:06;;;;;;;5.18;2.65;;;-0.50;99.90;;;;;;5098179;28;20043;-71
2022/04/02 02:54:33;;;;;;;6.05;2.53;;;-0.60;99.90;;;;;;5077277;28;20113;-71
2022/04/02 02:57:00;;;;;;;6.22;2.97;;;-0.60;99.90;;;;;;5078181;28;20052;-72
2022/04/02 02:59:27;;;;;;;5.13;2.75;;;-0.70;99.90;;;;;;5073266;28;20056;-71
2022/04/02 03:01:54;;;;;;;5.03;2.45;;;-0.70;99.90;;;;;;5074106;28;20048;-72
2022/04/02 03:04:23;;;;;;;8.35;3.38;;;-0.70;99.90;;;;;;5075299;28;20048;-71
2022/04/02 03:06:50;;;;;;;6.72;2.67;;;-0.80;99.90;;;;;;5074620;28;20060;-71
2022/04/02 03:09:17;;;;;;;5.55;3.10;;;-0.80;99.90;;;;;;5091523;28;20385;-71
2022/04/02 03:11:44;;;;;;;8.38;2.90;;;-0.80;99.90;;;;;;5077042;28;20545;-71
2022/04/02 03:14:11;;;;;;;7.38;2.70;;;-0.80;99.90;;;;;;5076767;28;20070;-71
2022/04/02 03:16:38;;;;;;;5.05;2.55;;;-0.80;99.90;;;;;;5077147;28;20447;-71
2022/04/02 03:19:06;;;;;;;6.45;2.97;;;-0.90;99.90;;;;;;5076798;28;20380;-71
2022/04/02 03:21:34;;;;;;;7.28;2.50;;;-0.90;99.90;;;;;;5076781;28;20044;-71
2022/04/02 03:24:01;;;;;;;5.70;2.63;;;-0.90;99.90;;;;;;5095021;28;20201;-71
2022/04/02 03:26:28;;;;;;;5.88;2.88;;;-0.90;99.90;;;;;;5094567;28;20052;-72
2022/04/02 03:28:55;;;;;;;5.28;2.67;;;-0.90;99.90;;;;;;5076701;28;20056;-71
2022/04/02 03:31:23;;;;;;;6.45;2.63;;;-1.00;99.90;;;;;;5077096;28;20055;-71
2022/04/02 03:33:50;;;;;;;4.95;2.22;;;-1.00;99.90;;;;;;5076251;28;20044;-71
2022/04/02 03:36:18;;;;;;;6.63;2.33;;;-1.00;99.90;;;;;;5076776;28;20540;-71
2022/04/02 03:38:46;;;;;;;7.28;2.72;;;-1.00;99.90;;;;;;5094642;28;20472;-71
2022/04/02 03:41:13;;;;;;;3.53;2.15;;;-1.00;99.90;;;;;;5094325;28;20048;-72
2022/04/02 03:43:40;;;;;;;3.65;2.30;;;-1.00;99.90;;;;;;5076516;28;20139;-71
2022/04/02 03:48:51;;;;;;;4.63;2.50;;;-1.00;99.90;;;;;;5093835;28;20127;-71
2022/04/02 03:51:18;;;;;;;7.05;2.50;;;-1.10;99.90;;;;;;5076445;28;20048;-71
2022/04/02 03:53:47;;;;;;;5.25;2.10;;;-1.00;99.90;;;;;;5076265;28;20120;-71
2022/04/02 03:56:14;;;;;;;6.70;2.65;;;-1.10;99.90;;;;;;5075635;28;20055;-71
2022/04/02 03:58:41;;;;;;;5.20;1.90;;;-1.00;99.90;;;;;;5076359;28;20060;-71
2022/04/02 04:01:08;;;;;;;4.78;1.80;;;-1.10;99.90;;;;;;5094566;28;20442;-71
2022/04/02 04:03:34;;;;;;;3.17;1.90;;;-1.00;99.90;;;;;;5075583;28;20499;-71
2022/04/02 04:06:01;;;;;;;4.03;1.90;;;-1.10;99.90;;;;;;5076228;28;20060;-70
2022/04/02 04:08:28;;;;;;;4.50;1.80;;;-1.10;99.90;;;;;;5071741;28;20090;-70
2022/04/02 04:10:57;;;;;;;5.47;2.17;;;-1.10;99.90;;;;;;5073659;28;20048;-71
2022/04/02 04:13:24;;;;;;;3.92;1.85;;;-1.10;99.90;;;;;;5056040;28;20049;-71
2022/04/02 04:15:51;;;;;;;3.53;2.10;;;-1.10;99.90;;;;;;5067299;28;20048;-71
2022/04/02 04:18:18;;;;;;;5.88;2.03;;;-1.10;99.90;;;;;;5075570;28;20051;-71
2022/04/02 04:20:44;;;;;;;6.57;1.73;;;-1.10;99.90;;;;;;5093773;28;20044;-72
2022/04/02 04:23:12;;;;;;;6.93;1.90;;;-1.10;99.90;;;;;;5074779;28;20487;-71
2022/04/02 04:25:39;;;;;;;5.30;1.73;;;-1.10;99.90;;;;;;5075789;28;20130;-71
2022/04/02 04:28:08;;;;;;;8.30;1.65;;;-1.10;99.90;;;;;;5072064;28;20064;-71
2022/04/02 04:30:35;;;;;;;2.28;1.50;;;-1.10;99.90;;;;;;5071883;28;20052;-70
2022/04/02 04:33:02;;;;;;;3.20;1.83;;;-1.10;99.90;;;;;;5073651;28;20094;-71
2022/04/02 04:35:29;;;;;;;6.00;1.90;;;-1.10;99.90;;;;;;5071876;28;20493;-70
2022/04/02 04:37:56;;;;;;;4.65;1.88;;;-1.10;99.90;;;;;;5073000;28;20110;-72
2022/04/02 04:40:23;;;;;;;3.75;1.70;;;-1.10;99.90;;;;;;5073550;28;20094;-71
2022/04/02 04:42:50;;;;;;;5.03;1.70;;;-1.10;99.90;;;;;;5071994;28;20442;-72
2022/04/02 04:45:18;;;;;;;8.02;1.88;;;-1.00;99.90;;;;;;5072510;28;20098;-72
2022/04/02 04:47:46;;;;;;;4.25;1.58;;;-1.00;99.90;;;;;;5071858;28;20056;-72
2022/04/02 04:50:13;;;;;;;7.25;2.97;;;-0.80;99.90;;;;;;5072179;28;20092;-71
2022/04/02 04:52:40;;;;;;;3.72;2.30;;;-0.60;99.90;;;;;;5071606;28;20048;-71
2022/04/02 04:55:07;;;;;;;3.30;1.75;;;-0.30;99.90;;;;;;5073068;28;20056;-73
2022/04/02 04:57:35;;;;;;;5.47;2.50;;;-0.10;99.90;;;;;;5071160;28;20113;-72
2022/04/02 05:00:02;;;;;;;3.05;1.75;;;0.20;99.90;;;;;;5072866;28;20144;-72
2022/04/02 05:02:31;;;;;;;5.78;1.98;;;0.30;99.90;;;;;;5073072;28;20052;-71
2022/04/02 05:04:58;;;;;;;6.93;2.70;;;0.50;99.90;;;;;;5072362;28;20041;-72
2022/04/02 05:07:25;;;;;;;3.10;1.98;;;0.60;99.90;;;;;;5071892;28;20446;-71
2022/04/02 05:09:52;;;;;;;9.05;2.47;;;0.70;99.90;;;;;;5071548;28;20086;-71
2022/04/02 05:12:19;;;;;;;4.75;2.45;;;0.70;99.90;;;;;;5067470;28;20075;-71
2022/04/02 05:14:46;;;;;;;4.88;2.40;;;0.80;99.90;;;;;;5052054;28;20073;-72
2022/04/02 05:17:13;;;;;;;8.70;2.80;;;0.80;99.90;;;;;;5051850;28;20049;-72
2022/04/02 05:19:41;;;;;;;6.90;3.47;;;0.80;99.90;;;;;;5051129;28;20055;-72
2022/04/02 05:22:10;;;;;;;5.15;2.85;;;0.80;99.90;;;;;;5050961;28;20103;-73
2022/04/02 05:24:37;;;;;;;5.75;3.45;;;0.80;99.90;;;;;;5052562;28;20087;-73
2022/04/02 05:27:04;;;;;;;5.93;3.33;;;0.90;99.90;;;;;;5070440;28;20044;-70
2022/04/02 05:29:31;;;;;;;7.03;3.97;;;0.90;99.90;;;;;;5075759;28;20056;-71
2022/04/02 05:31:58;;;;;;;8.48;3.17;;;1.00;99.90;;;;;;5093304;28;20150;-71
2022/04/02 05:34:25;;;;;;;5.40;2.95;;;1.00;99.90;;;;;;5091959;28;20051;-71
2022/04/02 05:36:53;;;;;;;6.38;3.17;;;1.00;99.90;;;;;;5074498;28;20526;-73
2022/04/02 05:39:20;;;;;;;4.90;2.70;;;1.00;99.90;;;;;;5071628;28;20056;-72
2022/04/02 05:41:48;;;;;;;4.88;2.65;;;1.00;99.90;;;;;;5054901;28;20048;-72
2022/04/02 05:44:15;;;;;;;11.50;3.33;;;1.00;99.90;;;;;;5055211;28;20044;-71
2022/04/02 05:46:42;;;;;;;11.20;3.63;;;1.10;99.90;;;;;;5055864;28;20059;-72
2022/04/02 05:49:09;;;;;;;7.57;2.88;;;1.20;99.90;;;;;;5072125;28;20113;-72
2022/04/02 05:51:35;;;;;;;4.85;2.47;;;1.30;99.90;;;;;;5054893;28;20052;-72
2022/04/02 05:54:04;;;;;;;7.78;2.38;;;1.40;99.90;;;;;;5078622;28;20488;-72
2022/04/02 05:56:33;;;;;;;6.18;2.13;;;1.50;99.90;;;;;;5075179;28;20052;-74
2022/04/02 05:59:00;;;;;;;4.95;2.33;;;1.60;99.90;;;;;;5093274;28;20052;-72
2022/04/02 06:01:27;;;;;;;4.05;1.90;;;1.70;99.90;;;;;;5092453;28;20067;-71
2022/04/02 06:03:54;;;;;;;4.22;1.70;;;1.70;99.90;;;;;;5092751;28;20102;-71
2022/04/02 06:06:21;;;;;;;5.07;2.40;;;1.70;99.90;;;;;;5092628;28;20067;-72
2022/04/02 06:08:48;;;;;;;5.55;3.10;;;1.70;99.90;;;;;;5069975;28;20048;-71
2022/04/02 06:11:16;;;;;;;4.57;2.00;;;1.80;99.90;;;;;;5072237;28;20170;-72
2022/04/02 06:13:43;;;;;;;4.25;1.90;;;1.90;99.90;;;;;;5056528;28;20119;-71
2022/04/02 06:16:10;;;;;;;4.38;2.03;;;2.10;99.90;;;;;;5055183;28;20442;-71
2022/04/02 06:18:37;;;;;;;4.72;2.00;;;2.10;99.90;;;;;;5065216;28;20048;-71
2022/04/02 06:21:04;;;;;;;5.63;2.20;;;2.20;99.90;;;;;;5087532;28;20051;-71
2022/04/02 06:23:31;;;;;;;4.90;2.03;;;2.10;99.90;;;;;;5067518;28;20048;-70
2022/04/02 06:25:58;;;;;;;8.70;2.85;;;2.10;99.90;;;;;;5079450;28;20044;-71
2022/04/02 06:28:27;;;;;;;5.90;2.53;;;2.10;99.90;;;;;;5069660;28;20049;-69
2022/04/02 06:30:53;;;;;;;3.92;2.42;;;2.10;99.90;;;;;;5069933;28;20055;-70
2022/04/02 06:33:20;;;;;;;4.38;1.85;;;2.10;99.90;;;;;;5067558;28;20056;-71
2022/04/02 06:35:47;;;;;;;4.10;2.15;;;2.20;99.90;;;;;;5071770;28;20044;-70
2022/04/02 06:38:14;;;;;;;3.30;2.35;;;2.20;99.90;;;;;;5067507;28;20064;-71
2022/04/02 06:40:41;;;;;;;5.65;2.20;;;2.20;99.90;;;;;;5065128;28;20059;-71
2022/04/02 06:43:08;;;;;;;4.15;2.17;;;2.30;99.90;;;;;;5070515;28;20454;-71
2022/04/02 06:45:36;;;;;;;6.32;2.20;;;2.30;99.90;;;;;;5063553;28;20095;-70
2022/04/02 06:48:04;;;;;;;6.90;2.60;;;2.30;99.90;;;;;;5067108;28;20041;-70
2022/04/02 06:50:30;;;;;;;3.17;2.00;;;2.30;99.90;;;;;;5065856;28;20466;-70
2022/04/02 06:52:57;;;;;;;3.50;2.00;;;2.50;99.90;;;;;;5066759;28;20381;-70
2022/04/02 06:55:24;;;;;;;4.70;2.08;;;2.80;99.90;;;;;;5066423;28;20040;-70
2022/04/02 06:57:54;;;;;;;4.47;2.20;;;3.10;99.90;;;;;;5071047;28;20500;-69
2022/04/02 07:00:21;;;;;;;5.40;2.20;;;3.20;99.90;;;;;;5068061;28;20052;-71
2022/04/02 07:02:50;;;;;;;6.25;2.50;;;3.20;99.90;;;;;;5063514;28;20144;-69
2022/04/02 07:05:18;;;;;;;4.80;2.75;;;3.20;99.90;;;;;;5060908;28;20041;-69
2022/04/02 07:07:45;;;;;;;6.50;3.33;;;3.20;99.90;;;;;;5065012;28;20055;-69
2022/04/02 07:10:13;;;;;;;3.30;1.90;;;3.10;99.90;;;;;;5063067;28;20511;-68
2022/04/02 07:12:40;;;;;;;6.07;2.55;;;3.00;99.90;;;;;;5071030;28;20493;-68
2022/04/02 07:15:08;;;;;;;6.55;2.47;;;2.90;99.90;;;;;;5066750;28;20072;-70
2022/04/02 07:17:35;;;;;;;5.10;2.28;;;2.70;99.90;;;;;;5062298;28;20252;-69
2022/04/02 07:20:06;;;;;;;4.80;2.58;;;2.40;99.90;;;;;;5061365;28;20061;-70
2022/04/02 07:22:36;;;;;;;5.05;2.72;;;2.30;99.90;;;;;;5063795;28;20052;-70
2022/04/02 07:25:05;;;;;;;7.55;2.83;;;2.10;99.90;;;;;;5066428;28;20049;-71
2022/04/02 07:27:31;;;;;;;8.13;2.63;;;2.00;99.90;;;;;;5074998;28;20117;-70
2022/04/02 07:29:59;;;;;;;4.45;2.30;;;1.90;99.90;;;;;;5066657;28;20052;-70
2022/04/02 07:32:26;;;;;;;4.25;2.35;;;1.90;99.90;;;;;;5085686;28;20093;-71
2022/04/02 07:34:52;;;;;;;8.13;2.70;;;1.90;99.90;;;;;;5070746;28;20408;-71
2022/04/02 07:37:31;;;;;;;8.15;3.72;;;1.80;99.90;;;;;;5082458;28;20557;-70
2022/04/02 07:40:06;;;;;;;5.38;3.13;;;1.90;99.90;;;;;;5081553;28;20041;-70
2022/04/02 07:42:38;;;;;;;5.95;2.28;;;2.00;99.90;;;;;;5072303;28;20055;-70
2022/04/02 07:45:07;;;;;;;6.53;2.80;;;2.10;99.90;;;;;;5066744;28;20044;-71
2022/04/02 07:47:35;;;;;;;6.72;1.95;;;2.20;99.90;;;;;;5065092;28;20051;-70
2022/04/02 07:50:11;;;;;;;6.07;2.95;;;2.20;99.90;;;;;;5066919;28;20086;-70
2022/04/02 07:52:44;;;;;;;8.10;3.50;;;2.20;99.90;;;;;;5065790;28;20132;-69
2022/04/02 07:55:12;;;;;;;5.97;2.95;;;2.40;99.90;;;;;;5065554;28;20044;-71
2022/04/02 07:57:40;;;;;;;4.43;2.85;;;2.50;99.90;;;;;;5087938;28;20131;-70
2022/04/02 08:00:10;;;;;;;4.90;2.05;;;2.70;99.90;;;;;;5069294;28;20488;-71
2022/04/02 08:02:39;;;;;;;7.55;2.08;;;3.10;99.90;;;;;;5064544;28;20056;-70
2022/04/02 08:05:07;;;;;;;7.78;2.50;;;3.60;99.90;;;;;;5067603;28;20076;-70
2022/04/02 08:07:35;;;;;;;11.15;3.55;;;4.20;99.90;;;;;;5067698;28;20081;-70
2022/04/02 08:10:06;;;;;;;6.35;2.13;;;5.00;99.90;;;;;;5066570;28;20052;-70
2022/04/02 08:12:35;;;;;;;5.35;2.63;;;6.20;99.90;;;;;;5071346;28;20052;-71
2022/04/02 08:15:05;;;;;;;4.63;2.45;;;7.60;99.90;;;;;;5065721;28;20048;-72
2022/04/02 08:17:32;;;;;;;3.15;2.15;;;8.70;99.90;;;;;;5083743;28;20066;-71
2022/04/02 08:20:00;;;;;;;6.20;2.45;;;9.60;99.90;;;;;;5087093;28;20044;-72
2022/04/02 08:22:27;;;;;;;6.28;2.33;;;10.70;99.90;;;;;;5086290;28;20080;-71
2022/04/02 08:24:54;;;;;;;4.80;2.33;;;11.30;99.90;;;;;;5069405;28;20052;-71
2022/04/02 08:27:31;;;;;;;7.00;2.70;;;11.80;99.10;;;;;;5086433;28;20056;-71
2022/04/02 08:30:10;;;;;;;3.47;1.40;;;12.10;95.40;;;;;;5067055;28;20090;-72
2022/04/02 08:32:57;;;;;;;6.30;2.83;;;12.20;93.10;;;;;;5071985;28;20454;-72
2022/04/02 08:35:26;;;;;;;4.47;1.73;;;12.60;92.20;;;;;;5062676;28;20459;-69
2022/04/02 08:38:13;;;;;;;3.38;1.70;;;12.50;91.90;;;;;;5085361;28;20097;-72
2022/04/02 08:41:13;;;;;;;5.35;1.70;;;11.50;90.10;;;;;;5057628;28;20478;-70
2022/04/02 08:44:08;;;;;;;3.00;1.30;;;11.00;91.10;;;;;;5061240;28;20450;-69
2022/04/02 08:46:36;;;;;;;4.32;1.60;;;11.30;92.30;;;;;;5053571;28;20053;-70
2022/04/02 08:49:22;;;;;;;4.60;1.92;;;11.60;92.20;;;;;;5072000;28;20048;-70
2022/04/02 08:52:05;;;;;;;4.78;1.80;;;11.90;90.30;;;;;;5066177;28;20059;-70
2022/04/02 08:54:40;;;;;;;3.40;1.73;;;11.80;90.40;;;;;;5065950;28;20098;-69
2022/04/02 08:57:19;;;;;;;4.72;2.38;;;12.40;89.90;;;;;;5076684;28;20056;-70
2022/04/02 09:00:03;;;;;;;7.47;2.13;;;12.50;90.70;;;;;;5054234;28;20056;-70
2022/04/02 09:02:56;;;;;;;5.07;1.70;;;13.30;89.00;;;;;;5091987;28;20385;-70
2022/04/02 09:05:33;;;;;;;3.78;1.40;;;13.60;85.10;;;;;;5090742;28;20044;-70
2022/04/02 09:08:30;;;;;;;5.28;1.42;;;13.00;79.80;;;;;;5074862;28;20094;-70
2022/04/02 09:11:25;;;;;;;6.85;1.40;;;12.10;80.70;;;;;;5073514;28;20048;-70
2022/04/02 09:14:17;;;;;;;3.65;1.20;;;10.90;82.90;;;;;;5093277;28;20048;-70
2022/04/02 09:17:12;;;;;;;5.00;1.15;;;11.10;83.10;;;;;;5074879;28;20102;-70
2022/04/02 09:20:01;;;;;;;3.50;2.00;;;12.10;81.70;;;;;;5074867;28;20052;-71
2022/04/02 09:22:51;;;;;;;2.42;1.00;;;13.20;80.10;;;;;;5075010;28;20052;-71
2022/04/02 09:25:50;;;;;;;5.53;1.30;;;13.90;74.50;;;;;;5074552;28;20052;-71
2022/04/02 09:28:53;;;;;;;3.53;1.13;;;14.20;73.30;;;;;;5071679;28;20055;-71
2022/04/02 09:32:06;;;;;;;5.38;1.58;;;14.20;73.30;;;;;;5060250;28;20105;-71
2022/04/02 09:35:02;;;;;;;2.40;1.17;;;14.20;72.80;;;;;;5074922;28;20113;-71
2022/04/02 09:37:52;;;;;;;4.47;1.30;;;14.10;72.70;;;;;;5092652;28;20110;-70
2022/04/02 09:40:19;;;;;;;2.08;0.95;;;12.50;70.70;;;;;;5092868;28;20052;-71
2022/04/02 09:42:50;;;;;;;3.72;1.10;;;11.80;73.00;;;;;;5075056;28;20060;-71
2022/04/02 09:45:20;;;;;;;2.88;1.23;;;12.30;70.90;;;;;;5075124;28;20044;-71
2022/04/02 09:48:07;;;;;;;2.97;1.30;;;12.40;73.00;;;;;;5092350;28;20040;-71
2022/04/02 09:50:34;;;;;;;4.72;1.20;;;11.60;72.70;;;;;;5074930;28;20079;-71
2022/04/02 09:53:15;;;;;;;3.13;1.50;;;11.70;74.10;;;;;;5092143;28;20500;-71
2022/04/02 09:55:50;;;;;;;2.25;1.10;;;12.00;81.60;;;;;;5092259;28;20047;-71
2022/04/02 09:58:47;;;;;;;2.85;1.40;;;12.10;74.80;;;;;;5092728;28;20052;-71
2022/04/02 10:01:26;;;;;;;5.25;1.20;;;12.60;73.90;;;;;;5091733;28;20058;-71
2022/04/02 10:03:59;;;;;;;3.00;1.17;;;12.80;69.20;;;;;;5092970;28;20109;-71
2022/04/02 10:06:28;;;;;;;2.80;1.00;;;12.60;71.50;;;;;;5074518;28;20060;-71
2022/04/02 10:09:07;;;;;;;6.38;2.35;;;12.60;72.30;;;;;;5076397;28;20113;-72
2022/04/02 10:11:35;;;;;;;3.10;1.08;;;12.30;71.10;;;;;;5067279;28;20052;-72
2022/04/02 10:14:04;;;;;;;3.67;1.38;;;12.90;71.40;;;;;;5074689;28;20132;-72
2022/04/02 10:16:32;;;;;;;5.40;1.95;;;12.40;71.10;;;;;;5059728;28;20045;-71
2022/04/02 10:19:02;;;;;;;2.53;1.20;;;12.20;72.60;;;;;;5073363;28;20055;-71
2022/04/02 10:21:30;;;;;;;3.75;1.60;;;12.60;72.40;;;;;;5074261;28;20090;-71
2022/04/02 10:24:07;;;;;;;4.82;1.88;;;12.00;73.00;;;;;;5057413;28;20044;-71
2022/04/02 10:26:38;;;;;;;3.22;1.60;;;11.60;70.60;;;;;;5074952;28;20052;-72
2022/04/02 10:29:11;;;;;;;4.35;1.10;;;12.00;72.30;;;;;;5057938;28;20048;-71
2022/04/02 10:31:41;;;;;;;3.15;1.25;;;12.10;70.70;;;;;;5060889;28;20080;-70
2022/04/02 10:34:12;;;;;;;6.28;1.67;;;11.70;70.30;;;;;;5064806;28;20135;-71
2022/04/02 10:36:40;;;;;;;;;;;11.10;71.00;;;;;;5057302;28;20071;-71
2022/04/02 10:39:09;;;;;;;5.20;2.10;;;10.50;71.50;;;;;;5068440;28;19919;-71
2022/04/02 10:41:40;;;;;;;3.67;1.40;;;9.90;71.10;;;;;;5092920;28;20445;-71
2022/04/02 10:44:13;;;;;;;4.40;2.08;;;9.70;73.00;;;;;;5080803;28;20130;-71
2022/04/02 10:46:45;;;;;;;5.65;2.10;;;9.80;76.30;;;;;;5058350;28;20052;-70
2022/04/02 10:49:20;;;;;;;3.83;2.25;;;10.30;76.70;;;;;;5061041;28;20485;-71
2022/04/02 10:51:54;;;;;;;3.10;1.90;;;10.30;74.00;;;;;;5065006;28;20062;-70
2022/04/02 10:54:28;;;;;;;6.07;2.10;;;9.70;72.30;;;;;;5056653;28;20048;-71
2022/04/02 10:56:56;;;;;;;3.92;2.15;;;9.10;72.80;;;;;;5073901;28;20125;-70
2022/04/02 10:59:26;;;;;;;7.10;2.58;;;8.90;72.90;;;;;;5069969;28;20055;-70
2022/04/02 11:01:59;;;;;;;3.53;2.00;;;8.80;74.10;;;;;;5056321;28;20044;-70
2022/04/02 11:04:30;;;;;;;7.70;2.35;;;8.90;74.50;;;;;;5077394;28;20040;-71
2022/04/02 11:06:58;;;;;;;4.70;1.70;;;8.70;74.20;;;;;;5063103;28;20056;-71
2022/04/02 11:09:30;;;;;;;4.88;2.63;;;9.00;75.40;;;;;;5082238;28;20105;-71
2022/04/02 11:12:05;;;;;;;4.75;2.25;;;9.00;75.10;;;;;;5088518;28;20548;-70
2022/04/02 11:14:41;;;;;;;4.65;1.45;;;8.90;75.50;;;;;;5059499;28;20051;-70
2022/04/02 11:17:08;;;;;;;2.17;1.23;;;8.80;74.30;;;;;;5056832;28;20056;-70
2022/04/02 11:19:54;;;;;;;4.47;1.20;;;8.90;74.70;;;;;;5055049;28;20082;-70
2022/04/02 11:22:27;;;;;;;4.20;1.27;;;9.70;74.50;;;;;;5073833;28;20049;-71
2022/04/02 11:25:03;;;;;;;3.35;1.60;;;10.60;69.30;;;;;;5078428;28;20567;-70
2022/04/02 11:27:35;;;;;;;7.32;1.55;;;10.50;70.80;;;;;;5060684;28;20057;-70
2022/04/02 11:30:04;;;;;;;4.47;1.10;;;10.40;70.20;;;;;;5074521;28;20052;-71
2022/04/02 11:32:40;;;;;;;2.63;1.20;;;10.10;71.90;;;;;;5069327;28;20052;-71
2022/04/02 11:35:14;;;;;;;5.57;2.13;;;11.20;72.40;;;;;;5057273;28;20162;-71
2022/04/02 11:37:55;;;;;;;2.80;1.23;;;12.50;70.20;;;;;;5064503;28;20110;-71
2022/04/02 11:40:27;;;;;;;3.13;1.30;;;11.90;67.20;;;;;;5058906;28;20049;-70
2022/04/02 11:42:55;;;;;;;5.75;2.20;;;10.80;66.10;;;;;;5072937;28;20049;-71
2022/04/02 11:45:22;;;;;;;3.60;1.65;;;10.70;69.20;;;;;;5055530;28;20056;-72
2022/04/02 11:47:51;;;;;;;4.88;1.50;;;9.90;70.90;;;;;;5060831;28;20488;-73
2022/04/02 11:50:30;;;;;;;5.40;1.38;;;9.80;72.40;;;;;;5078503;28;20056;-73
2022/04/02 11:52:59;;;;;;;4.35;1.48;;;9.70;72.60;;;;;;5059008;28;20460;-73
2022/04/02 11:55:27;;;;;;;4.63;1.48;;;9.80;72.20;;;;;;5065032;28;20059;-73
2022/04/02 11:58:05;;;;;;;5.20;1.80;;;10.80;72.70;;;;;;5093241;28;20430;-72
2022/04/02 12:00:33;;;;;;;2.75;1.20;;;11.10;68.90;;;;;;5063263;28;20451;-73
2022/04/02 12:03:01;;;;;;;5.47;2.13;;;10.70;69.50;;;;;;5080499;28;20105;-75
2022/04/02 12:05:42;;;;;;;9.50;2.17;;;10.80;69.60;;;;;;5058214;28;20045;-71
2022/04/02 12:08:10;;;;;;;4.82;2.25;;;12.20;67.90;;;;;;5086044;28;20113;-75
2022/04/02 12:10:46;;;;;;;5.45;1.50;;;12.60;66.30;;;;;;5073915;28;20056;-81
2022/04/02 12:13:13;;;;;;;5.47;1.33;;;13.40;66.50;;;;;;5066272;28;20389;-80
2022/04/02 12:15:40;;;;;;;2.92;1.40;;;13.70;66.90;;;;;;5064588;28;20063;-78
2022/04/02 12:18:09;;;;;;;2.72;1.30;;;13.10;65.60;;;;;;5091577;28;20414;-82
2022/04/02 12:20:39;;;;;;;5.82;1.92;;;12.30;65.00;;;;;;5064506;28;20503;-68
2022/04/02 12:23:10;;;;;;;;;;;11.80;76.00;;;;;;5060161;28;20141;-71
2022/04/02 12:25:38;;;;;;;2.60;1.38;;;11.40;67.00;;;;;;5072862;28;20002;-70
2022/04/02 12:28:15;;;;;;;4.75;1.40;;;10.50;67.20;;;;;;5068676;28;20052;-70
2022/04/02 12:30:46;;;;;;;5.85;2.60;;;10.00;69.70;;;;;;5067801;28;20492;-69
2022/04/02 12:33:16;;;;;;;5.78;2.65;;;9.70;70.60;;;;;;5066939;28;20132;-70
2022/04/02 12:35:48;;;;;;;5.35;1.88;;;9.50;73.60;;;;;;5055768;28;20044;-70
2022/04/02 12:38:29;;;;;;;3.53;1.85;;;9.30;72.40;;;;;;5067558;28;20056;-68
2022/04/02 12:40:57;;;;;;;6.45;2.03;;;9.20;73.60;;;;;;5054752;28;20500;-68
2022/04/02 12:43:30;;;;;;;6.00;2.00;;;8.90;73.60;;;;;;5053754;28;20052;-68
2022/04/02 12:45:58;;;;;;;6.55;2.38;;;9.10;73.70;;;;;;5072211;28;20114;-68
2022/04/02 12:48:26;;;;;;;3.92;1.80;;;9.20;73.00;;;;;;5058829;28;20052;-67
2022/04/02 12:50:57;;;;;;;5.40;1.70;;;9.50;73.30;;;;;;5054870;28;20052;-68
2022/04/02 12:53:32;;;;;;;4.55;1.60;;;10.90;72.20;;;;;;5063601;28;20059;-68
2022/04/02 12:56:00;;;;;;;3.90;1.73;;;12.00;70.70;;;;;;5080373;28;20056;-68
2022/04/02 12:58:32;;;;;;;4.03;2.30;;;11.60;69.60;;;;;;5057004;28;20044;-69
2022/04/02 13:01:10;;;;;;;4.72;1.65;;;10.90;71.00;;;;;;5054041;28;20056;-69
2022/04/02 13:03:46;;;;;;;6.75;2.13;;;10.40;69.90;;;;;;5079253;28;20044;-71
2022/04/02 13:06:20;;;;;;;4.43;1.80;;;9.90;70.30;;;;;;5067237;28;20105;-71
2022/04/02 13:08:56;;;;;;;3.35;1.48;;;10.00;70.00;;;;;;5073097;28;20048;-72
2022/04/02 13:11:44;;;;;;;5.65;2.35;;;10.70;68.60;;;;;;5088575;28;20051;-71
2022/04/02 13:14:18;;;;;;;5.40;2.30;;;11.70;65.70;;;;;;5054412;28;20049;-70
2022/04/02 13:16:46;;;;;;;5.18;2.10;;;12.70;66.30;;;;;;5057127;28;20056;-70